createdAt,value
2024-01-30T00:05:06.778Z,25.90
2024-01-30T00:10:29.882Z,25.70
2024-01-30T00:15:52.285Z,25.43
2024-01-30T00:21:14.726Z,25.23
2024-01-30T00:26:37.177Z,24.95
2024-01-30T00:32:00.100Z,25.60
2024-01-30T00:37:22.575Z,26.00
2024-01-30T00:42:45.006Z,24.23
2024-01-30T00:48:07.466Z,25.65
2024-01-30T00:53:30.333Z,24.87
2024-01-30T00:58:52.857Z,24.67
2024-01-30T01:04:15.272Z,24.03
2024-01-30T01:09:38.057Z,24.85
2024-01-30T01:15:00.505Z,24.75
2024-01-30T01:20:23.808Z,24.72
2024-01-30T01:25:46.206Z,25.48
2024-01-30T01:31:08.636Z,24.92
2024-01-30T01:36:31.083Z,25.60
2024-01-30T01:41:53.603Z,25.52
2024-01-30T01:47:18.034Z,23.70
2024-01-30T01:52:42.377Z,24.18
2024-01-30T01:58:06.557Z,24.23
2024-01-30T02:03:31.841Z,24.12
2024-01-30T02:08:54.449Z,23.30
2024-01-30T02:14:17.292Z,25.55
2024-01-30T02:19:39.799Z,24.35
2024-01-30T02:25:02.257Z,23.07
2024-01-30T02:30:25.875Z,23.37
2024-01-30T02:35:48.309Z,22.62
2024-01-30T02:41:10.789Z,24.37
2024-01-30T02:46:33.214Z,23.92
2024-01-30T02:51:56.325Z,23.62
2024-01-30T02:57:18.740Z,24.00
2024-01-30T03:02:41.707Z,24.23
2024-01-30T03:08:04.247Z,23.40
2024-01-30T03:13:27.760Z,22.58
2024-01-30T03:18:50.355Z,24.92
2024-01-30T03:24:12.894Z,22.87
2024-01-30T03:29:35.510Z,22.95
2024-01-30T03:34:58.135Z,22.00
2024-01-30T03:40:21.841Z,22.22
2024-01-30T03:45:44.364Z,21.70
2024-01-30T03:51:07.048Z,21.80
2024-01-30T03:56:29.730Z,22.22
2024-01-30T04:01:54.163Z,21.37
2024-01-30T04:07:17.073Z,21.62
2024-01-30T04:12:39.600Z,22.73
2024-01-30T04:18:04.944Z,21.23
2024-01-30T04:23:27.376Z,21.02
2024-01-30T04:28:49.825Z,21.23
2024-01-30T04:34:12.354Z,21.57
2024-01-30T04:39:34.821Z,21.50
2024-01-30T04:44:58.800Z,22.48
2024-01-30T04:50:21.863Z,22.22
2024-01-30T04:55:44.375Z,23.00
2024-01-30T05:01:06.967Z,23.52
2024-01-30T05:06:34.595Z,21.45
2024-01-30T05:11:58.114Z,22.77
2024-01-30T05:17:21.759Z,24.77
2024-01-30T05:22:45.916Z,25.17
2024-01-30T05:28:08.435Z,25.62
2024-01-30T05:33:30.940Z,24.50
2024-01-30T05:38:53.385Z,26.35
2024-01-30T05:44:15.895Z,26.90
2024-01-30T05:49:38.372Z,26.82
2024-01-30T05:55:00.844Z,24.85
2024-01-30T06:00:24.710Z,26.02
2024-01-30T06:05:47.172Z,24.77
2024-01-30T06:11:10.023Z,23.52
2024-01-30T06:16:32.448Z,23.50
2024-01-30T06:21:55.060Z,24.12
2024-01-30T06:27:18.964Z,21.68
2024-01-30T06:32:41.446Z,21.30
2024-01-30T06:38:05.166Z,21.82
2024-01-30T06:43:27.656Z,23.20
2024-01-30T06:48:50.289Z,21.82
2024-01-30T06:54:12.703Z,22.02
2024-01-30T06:59:35.065Z,23.05
2024-01-30T07:04:57.640Z,23.12
2024-01-30T07:10:21.300Z,21.87
2024-01-30T07:15:43.773Z,21.37
2024-01-30T07:21:06.283Z,21.60
2024-01-30T07:26:29.634Z,21.65
2024-01-30T07:31:52.071Z,23.18
2024-01-30T07:37:16.185Z,23.77
2024-01-30T07:42:38.567Z,22.48
2024-01-30T07:48:02.484Z,22.25
2024-01-30T07:53:29.926Z,23.77
2024-01-30T07:58:52.643Z,24.65
2024-01-30T08:04:16.473Z,23.18
2024-01-30T08:09:40.763Z,21.87
2024-01-30T08:15:08.695Z,22.52
2024-01-30T08:20:32.562Z,22.07
2024-01-30T08:25:55.305Z,23.05
2024-01-30T08:31:20.788Z,24.20
2024-01-30T08:36:43.980Z,23.52
2024-01-30T08:42:06.513Z,25.75
2024-01-30T08:47:29.753Z,24.57
2024-01-30T08:52:52.208Z,22.40
2024-01-30T08:58:15.047Z,21.05
2024-01-30T09:03:39.168Z,21.65
2024-01-30T09:09:01.630Z,23.87
2024-01-30T09:14:24.469Z,19.57
2024-01-30T09:19:47.001Z,18.48
2024-01-30T09:25:09.713Z,21.15
2024-01-30T09:30:32.607Z,21.70
2024-01-30T09:35:56.142Z,20.05
2024-01-30T09:41:22.988Z,22.02
2024-01-30T09:46:47.768Z,17.45
2024-01-30T09:52:42.072Z,16.55
2024-01-30T09:58:05.102Z,18.35
2024-01-30T10:09:48.482Z,16.27
2024-01-30T10:15:11.169Z,16.95
2024-01-30T10:20:33.864Z,16.73
2024-01-30T10:25:58.482Z,16.57
2024-01-30T10:31:23.136Z,16.75
2024-01-30T10:36:49.060Z,15.72
2024-01-30T10:42:15.481Z,18.02
2024-01-30T10:47:40.595Z,14.15
2024-01-30T10:53:04.183Z,15.00
2024-01-30T10:58:34.700Z,16.10
2024-01-30T11:03:59.165Z,16.95
2024-01-30T11:09:25.385Z,16.73
2024-01-30T11:14:53.954Z,15.80
2024-01-30T11:20:24.540Z,15.00
2024-01-30T11:25:54.517Z,14.45
2024-01-30T11:31:19.156Z,14.43
2024-01-30T11:36:45.013Z,12.65
2024-01-30T11:42:09.516Z,13.62
2024-01-30T11:47:32.400Z,13.30
2024-01-30T11:52:55.438Z,14.65
2024-01-30T11:58:18.758Z,14.70
2024-01-30T12:03:41.301Z,14.18
2024-01-30T12:09:13.263Z,13.13
2024-01-30T12:14:37.290Z,13.55
2024-01-30T12:20:01.978Z,12.28
2024-01-30T12:25:26.640Z,12.80
2024-01-30T12:30:49.414Z,13.45
2024-01-30T12:36:13.597Z,13.48
2024-01-30T12:41:36.852Z,13.08
2024-01-30T12:47:02.366Z,13.20
2024-01-30T12:52:25.605Z,12.82
2024-01-30T12:57:48.113Z,13.78
2024-01-30T13:03:10.691Z,14.40
2024-01-30T13:08:33.165Z,12.80
2024-01-30T13:13:55.654Z,14.05
2024-01-30T13:19:18.272Z,13.32
2024-01-30T13:24:41.241Z,13.90
2024-01-30T13:30:04.017Z,12.47
2024-01-30T13:35:26.398Z,13.70
2024-01-30T13:40:49.188Z,14.78
2024-01-30T13:46:13.137Z,13.68
2024-01-30T13:51:36.005Z,14.05
2024-01-30T13:56:59.154Z,15.28
2024-01-30T14:02:22.008Z,15.88
2024-01-30T14:07:44.719Z,15.65
2024-01-30T14:13:07.362Z,14.25
2024-01-30T14:25:22.108Z,16.50
2024-01-30T14:30:45.283Z,16.10
2024-01-30T14:36:20.043Z,16.45
2024-01-30T14:55:20.721Z,17.33
2024-01-30T15:17:33.055Z,16.60
2024-01-30T15:22:55.724Z,18.15
2024-01-30T15:34:09.259Z,20.20
2024-01-30T15:45:32.141Z,22.20
2024-01-30T15:51:10.285Z,22.50
2024-01-30T15:56:33.047Z,22.00
2024-01-30T16:08:12.325Z,21.00
2024-01-30T16:25:34.478Z,22.50
2024-01-30T16:30:59.285Z,22.32
2024-01-30T16:36:26.935Z,22.70
2024-01-30T16:42:01.237Z,23.43
2024-01-30T16:47:24.612Z,27.03
2024-01-30T16:52:48.755Z,22.60
2024-01-30T16:58:13.658Z,23.80
2024-01-30T17:03:41.761Z,23.07
2024-01-30T17:09:07.075Z,24.57
2024-01-30T17:14:32.117Z,24.35
2024-01-30T17:19:56.960Z,22.70
2024-01-30T17:25:22.636Z,20.08
2024-01-30T17:30:46.765Z,22.20
2024-01-30T17:36:11.429Z,19.80
2024-01-30T17:47:11.610Z,21.47
2024-01-30T17:52:34.583Z,30.10
2024-01-30T17:57:57.834Z,31.77
2024-01-30T18:03:40.235Z,26.20
2024-01-30T18:09:04.118Z,25.15
2024-01-30T18:14:27.004Z,25.25
2024-01-30T18:19:50.087Z,24.87
2024-01-30T18:25:13.385Z,25.20
2024-01-30T18:30:36.391Z,24.33
2024-01-30T18:36:22.768Z,24.10
2024-01-30T18:41:45.564Z,23.12
2024-01-30T18:47:08.220Z,32.03
2024-01-30T18:59:18.955Z,27.53
2024-01-30T19:04:41.532Z,21.90
2024-01-30T19:10:07.091Z,28.98
2024-01-30T19:15:29.853Z,27.42
2024-01-30T19:20:52.552Z,27.00
2024-01-30T19:26:18.200Z,24.02
2024-01-30T19:31:41.073Z,31.23
2024-01-30T19:37:03.528Z,26.90
2024-01-30T19:42:26.145Z,27.02
2024-01-30T19:47:48.660Z,29.40
2024-01-30T19:53:11.467Z,30.02
2024-01-30T19:58:34.285Z,34.78
2024-01-30T20:03:56.976Z,27.48
2024-01-30T20:09:19.511Z,26.65
2024-01-30T20:14:41.900Z,28.75
2024-01-30T20:20:04.647Z,26.97
2024-01-30T20:25:27.195Z,31.12
2024-01-30T20:30:51.477Z,25.72
2024-01-30T20:36:14.473Z,28.32
2024-01-30T20:41:38.244Z,29.10
2024-01-30T20:47:01.902Z,28.98
2024-01-30T20:52:24.566Z,30.30
2024-01-30T20:57:47.113Z,25.50
2024-01-30T21:03:09.478Z,27.05
2024-01-30T21:08:32.272Z,26.30
2024-01-30T21:13:54.636Z,27.35
2024-01-30T21:19:17.224Z,29.72
2024-01-30T21:24:42.153Z,28.70
2024-01-30T21:30:04.843Z,28.80
2024-01-30T21:35:27.366Z,27.15
2024-01-30T21:40:49.888Z,27.73
2024-01-30T21:46:12.340Z,26.97
2024-01-30T21:51:34.787Z,28.17
2024-01-30T21:56:57.215Z,28.10
2024-01-30T22:02:19.665Z,30.05
2024-01-30T22:07:43.440Z,31.68
2024-01-30T22:13:06.016Z,27.60
2024-01-30T22:18:28.421Z,27.07
2024-01-30T22:23:50.846Z,23.53
2024-01-30T22:29:13.266Z,26.93
2024-01-30T22:34:35.928Z,27.70
2024-01-30T22:39:58.416Z,27.93
2024-01-30T22:45:21.209Z,25.67
2024-01-30T22:50:43.903Z,25.27
2024-01-30T22:56:06.440Z,24.25
2024-01-30T23:01:30.769Z,24.52
2024-01-30T23:06:53.905Z,24.50
2024-01-30T23:12:16.528Z,25.72
2024-01-30T23:17:39.966Z,25.50
2024-01-30T23:23:02.616Z,24.45
2024-01-30T23:28:25.226Z,22.07
2024-01-30T23:33:47.838Z,20.15
2024-01-30T23:40:37.044Z,20.90
2024-01-30T23:45:59.606Z,20.25
2024-01-30T23:51:22.336Z,21.00
2024-01-30T23:56:47.810Z,21.20
